Terminal Aerodrome Forecast
Issued by NWS Sterling, VA

Current Version | Previous Version | Text Only | Print | Product List | Glossary Off
Versions: 1 2 3 4 5 6 7 8 9 10 11 12 13 14 15 16 17 18 19 20 21 22 23 24 25

000
FTUS41 KLWX 181500 AAA
TAFDCA
TAF AMD
KDCA 181501Z 1815/1912 31013G26KT P6SM FEW080
     FM181900 29017G24KT P6SM SCT040 BKN060
     FM190000 30010KT P6SM BKN050=

USA.gov is the U.S. government's official web portal to all federal, state and local government web resources and services.